sensor_id;sensor_type;location;lat;lon;timestamp;P1;durP1;ratioP1;P2;durP2;ratioP2
77217;SDS011;66214;51.302;17.068;2023-03-19T22:03:26;25.50;;;15.00;;
77217;SDS011;66214;51.302;17.068;2023-03-19T22:05:55;32.50;;;16.70;;
77217;SDS011;66214;51.302;17.068;2023-03-19T22:08:24;27.60;;;15.90;;
77217;SDS011;66214;51.302;17.068;2023-03-19T22:10:57;34.80;;;16.10;;
77217;SDS011;66214;51.302;17.068;2023-03-19T22:13:29;26.30;;;15.40;;
77217;SDS011;66214;51.302;17.068;2023-03-19T22:16:00;24.40;;;13.50;;
77217;SDS011;66214;51.302;17.068;2023-03-19T22:18:28;31.50;;;14.90;;
77217;SDS011;66214;51.302;17.068;2023-03-19T22:20:56;25.70;;;14.40;;
77217;SDS011;66214;51.302;17.068;2023-03-19T22:26:56;27.50;;;14.30;;
77217;SDS011;66214;51.302;17.068;2023-03-19T22:29:24;31.90;;;15.30;;
77217;SDS011;66214;51.302;17.068;2023-03-19T22:31:54;29.20;;;15.40;;
77217;SDS011;66214;51.302;17.068;2023-03-19T22:34:25;30.20;;;16.80;;
77217;SDS011;66214;51.302;17.068;2023-03-19T22:36:54;31.00;;;17.90;;
77217;SDS011;66214;51.302;17.068;2023-03-19T22:39:22;36.70;;;18.40;;
77217;SDS011;66214;51.302;17.068;2023-03-19T22:41:51;37.10;;;18.80;;
77217;SDS011;66214;51.302;17.068;2023-03-19T22:44:27;39.20;;;19.70;;
77217;SDS011;66214;51.302;17.068;2023-03-19T22:46:57;38.70;;;20.10;;
77217;SDS011;66214;51.302;17.068;2023-03-19T22:49:27;41.90;;;20.60;;
77217;SDS011;66214;51.302;17.068;2023-03-19T22:51:57;31.70;;;17.10;;
77217;SDS011;66214;51.302;17.068;2023-03-19T22:54:25;31.30;;;16.10;;
77217;SDS011;66214;51.302;17.068;2023-03-19T22:56:53;29.80;;;17.00;;
77217;SDS011;66214;51.302;17.068;2023-03-19T22:59:20;29.80;;;15.70;;
77217;SDS011;66214;51.302;17.068;2023-03-19T23:01:49;35.90;;;18.20;;
77217;SDS011;66214;51.302;17.068;2023-03-19T23:04:23;36.00;;;18.20;;
77217;SDS011;66214;51.302;17.068;2023-03-19T23:06:59;32.20;;;16.40;;
77217;SDS011;66214;51.302;17.068;2023-03-19T23:09:30;28.80;;;14.40;;
77217;SDS011;66214;51.302;17.068;2023-03-19T23:12:00;30.60;;;14.50;;
77217;SDS011;66214;51.302;17.068;2023-03-19T23:14:29;27.70;;;13.00;;
77217;SDS011;66214;51.302;17.068;2023-03-19T23:17:03;25.10;;;13.10;;
77217;SDS011;66214;51.302;17.068;2023-03-19T23:19:36;31.70;;;13.80;;
77217;SDS011;66214;51.302;17.068;2023-03-19T23:22:06;31.40;;;14.00;;
77217;SDS011;66214;51.302;17.068;2023-03-19T23:24:36;24.80;;;13.60;;
77217;SDS011;66214;51.302;17.068;2023-03-19T23:27:05;29.70;;;14.30;;
77217;SDS011;66214;51.302;17.068;2023-03-19T23:29:42;28.80;;;14.70;;
77217;SDS011;66214;51.302;17.068;2023-03-19T23:32:10;27.70;;;14.30;;
77217;SDS011;66214;51.302;17.068;2023-03-19T23:34:39;26.90;;;14.30;;
77217;SDS011;66214;51.302;17.068;2023-03-19T23:37:06;25.80;;;13.00;;
77217;SDS011;66214;51.302;17.068;2023-03-19T23:39:35;24.90;;;12.90;;
77217;SDS011;66214;51.302;17.068;2023-03-19T23:42:06;24.30;;;12.90;;
77217;SDS011;66214;51.302;17.068;2023-03-19T23:44:35;21.00;;;11.20;;
77217;SDS011;66214;51.302;17.068;2023-03-19T23:47:04;22.10;;;12.30;;
77217;SDS011;66214;51.302;17.068;2023-03-19T23:49:32;23.30;;;12.20;;
77217;SDS011;66214;51.302;17.068;2023-03-19T23:52:00;27.60;;;12.80;;
77217;SDS011;66214;51.302;17.068;2023-03-19T23:57:05;23.50;;;12.80;;
